Time;durP1;ratioP1;P1;durP2;ratioP2;P2;SDS_P1;SDS_P2;PMS_P1;PMS_P2;Temp;Humidity;BMP_temperature;BMP_pressure;BME280_temperature;BME280_humidity;BME280_pressure;Samples;Min_cycle;Max_cycle;Signal;HPM_P1;HPM_P2
2022/08/14 00:00:54;;;;;;;7.38;4.78;;;25.90;50.90;;;;;;4986482;28;20027;-75
2022/08/14 00:03:26;;;;;;;7.80;3.90;;;25.80;51.00;;;;;;4965021;28;20539;-75
2022/08/14 00:05:54;;;;;;;9.70;3.90;;;25.80;51.10;;;;;;4991666;28;20789;-75
2022/08/14 00:08:26;;;;;;;7.45;4.10;;;25.80;51.30;;;;;;4994937;28;20030;-76
2022/08/14 00:10:53;;;;;;;6.25;4.97;;;25.70;51.40;;;;;;4996143;28;20065;-76
2022/08/14 00:13:20;;;;;;;6.30;3.45;;;25.60;51.50;;;;;;4996020;28;20031;-75
2022/08/14 00:15:48;;;;;;;8.02;4.38;;;25.60;51.60;;;;;;4994925;28;20026;-75
2022/08/14 00:18:17;;;;;;;5.93;4.13;;;25.50;51.70;;;;;;4994463;28;20564;-76
2022/08/14 00:20:46;;;;;;;6.82;4.78;;;25.50;51.80;;;;;;4975502;28;20028;-76
2022/08/14 00:23:26;;;;;;;5.43;3.58;;;25.50;52.00;;;;;;4975106;28;20031;-75
2022/08/14 00:25:53;;;;;;;6.90;4.88;;;25.50;52.20;;;;;;4992250;28;20096;-75
2022/08/14 00:28:25;;;;;;;8.23;4.70;;;25.40;52.50;;;;;;4992032;28;20030;-75
2022/08/14 00:30:51;;;;;;;9.75;4.68;;;25.40;52.40;;;;;;4989333;28;20027;-75
2022/08/14 00:33:16;;;;;;;8.50;5.15;;;25.40;52.50;;;;;;4989924;28;20022;-75
2022/08/14 00:35:43;;;;;;;8.60;4.00;;;25.30;52.40;;;;;;4987479;28;20026;-75
2022/08/14 00:38:09;;;;;;;6.18;4.45;;;25.30;52.60;;;;;;4955300;28;20030;-77
2022/08/14 00:40:34;;;;;;;7.30;4.10;;;25.20;52.90;;;;;;4954524;28;20084;-75
2022/08/14 00:43:01;;;;;;;6.07;4.40;;;25.20;52.80;;;;;;4979645;28;20019;-76
2022/08/14 00:45:26;;;;;;;5.55;4.25;;;25.10;52.90;;;;;;4991217;28;20041;-76
2022/08/14 00:47:52;;;;;;;7.00;5.10;;;25.10;53.80;;;;;;4990732;28;20046;-76
2022/08/14 00:50:21;;;;;;;8.40;5.28;;;25.10;53.50;;;;;;4991726;28;20037;-76
2022/08/14 00:52:51;;;;;;;8.15;4.93;;;25.00;53.40;;;;;;4991419;28;20019;-77
2022/08/14 00:55:19;;;;;;;6.70;5.15;;;25.00;53.50;;;;;;4990899;28;20693;-75
2022/08/14 00:57:44;;;;;;;8.48;4.28;;;24.90;53.60;;;;;;4991478;28;20535;-75
2022/08/14 01:00:14;;;;;;;9.40;5.80;;;24.90;53.60;;;;;;4991570;28;20046;-76
2022/08/14 01:02:43;;;;;;;7.40;4.75;;;24.90;53.80;;;;;;4973671;28;20026;-75
2022/08/14 01:05:22;;;;;;;6.00;4.07;;;24.90;53.80;;;;;;4990723;28;20034;-76
2022/08/14 01:07:58;;;;;;;7.03;4.38;;;24.80;53.70;;;;;;4991032;28;20133;-77
2022/08/14 01:10:49;;;;;;;8.07;4.20;;;24.80;54.20;;;;;;4990957;28;20031;-76
2022/08/14 01:13:15;;;;;;;5.85;4.60;;;24.70;54.10;;;;;;4989550;28;20053;-77
2022/08/14 01:15:51;;;;;;;5.78;3.80;;;24.70;54.30;;;;;;4989899;28;20022;-76
2022/08/14 01:21:05;;;;;;;6.05;4.57;;;24.60;54.70;;;;;;4990537;28;20045;-77
2022/08/14 01:23:32;;;;;;;7.15;4.68;;;24.60;54.80;;;;;;4990475;28;20130;-76
2022/08/14 01:25:59;;;;;;;6.22;4.28;;;24.60;54.80;;;;;;4991173;28;20074;-76
2022/08/14 01:28:25;;;;;;;5.65;3.90;;;24.50;54.80;;;;;;4991241;28;20838;-75
2022/08/14 01:30:55;;;;;;;6.75;5.28;;;24.50;54.80;;;;;;4973205;28;20122;-75
2022/08/14 01:33:27;;;;;;;6.25;4.82;;;24.50;54.90;;;;;;4990587;28;20436;-76
2022/08/14 01:35:57;;;;;;;5.35;4.18;;;24.50;55.20;;;;;;4991172;28;20034;-76
2022/08/14 01:38:30;;;;;;;8.10;5.68;;;24.50;55.00;;;;;;4992632;28;20022;-76
2022/08/14 01:40:56;;;;;;;6.35;5.22;;;24.50;55.70;;;;;;4978930;28;20035;-76
2022/08/14 01:43:22;;;;;;;6.32;5.03;;;24.40;55.40;;;;;;4975386;28;20031;-75
2022/08/14 01:45:51;;;;;;;7.50;5.70;;;24.40;55.40;;;;;;4972508;28;20055;-75
2022/08/14 01:48:18;;;;;;;7.60;5.07;;;24.40;55.50;;;;;;4972424;28;20054;-76
2022/08/14 01:50:43;;;;;;;6.25;4.45;;;24.40;55.60;;;;;;4971319;28;20023;-75
2022/08/14 01:53:09;;;;;;;6.85;5.03;;;24.30;55.50;;;;;;4970860;28;20114;-76
2022/08/14 01:55:38;;;;;;;8.23;5.97;;;24.30;55.60;;;;;;4953203;28;20019;-75
2022/08/14 01:58:03;;;;;;;7.30;5.18;;;24.30;56.20;;;;;;4971307;28;20035;-75
2022/08/14 02:00:29;;;;;;;9.00;5.55;;;24.20;56.00;;;;;;4971370;28;20091;-75
2022/08/14 02:02:57;;;;;;;6.75;4.97;;;24.20;56.30;;;;;;4970586;28;20101;-74
2022/08/14 02:05:28;;;;;;;9.00;5.90;;;24.20;55.80;;;;;;4970904;28;20030;-75
2022/08/14 02:07:55;;;;;;;7.63;5.05;;;24.20;56.30;;;;;;4970409;28;20177;-75
2022/08/14 02:10:21;;;;;;;7.47;5.35;;;24.20;56.10;;;;;;4979323;28;20544;-75
2022/08/14 02:12:47;;;;;;;7.93;5.28;;;24.20;56.10;;;;;;4990179;28;20030;-75
2022/08/14 02:15:17;;;;;;;7.03;5.50;;;24.20;56.30;;;;;;4990611;28;20034;-74
2022/08/14 02:17:43;;;;;;;11.45;6.13;;;24.10;56.30;;;;;;4990035;28;20026;-75
2022/08/14 02:20:09;;;;;;;6.32;4.65;;;24.10;56.60;;;;;;4989777;28;20026;-75
2022/08/14 02:22:37;;;;;;;9.50;5.47;;;24.10;56.50;;;;;;4990088;28;20029;-76
2022/08/14 02:25:03;;;;;;;8.65;6.55;;;24.00;56.90;;;;;;4990239;28;20495;-75
2022/08/14 02:27:29;;;;;;;7.28;5.28;;;24.00;57.10;;;;;;4989863;28;20507;-74
2022/08/14 02:29:55;;;;;;;6.78;5.57;;;24.00;56.50;;;;;;4972350;28;20061;-76
2022/08/14 02:32:21;;;;;;;7.97;5.70;;;24.00;57.20;;;;;;4990255;28;20492;-77
2022/08/14 02:34:48;;;;;;;8.07;5.82;;;24.00;57.30;;;;;;4989894;28;20019;-76
2022/08/14 02:37:14;;;;;;;6.60;4.63;;;24.00;57.00;;;;;;4974396;28;20037;-76
2022/08/14 02:39:43;;;;;;;7.55;5.38;;;23.90;56.60;;;;;;4977067;28;20113;-76
2022/08/14 02:42:16;;;;;;;7.57;5.60;;;23.90;57.00;;;;;;4989931;28;20034;-77
2022/08/14 02:44:44;;;;;;;8.45;5.80;;;23.90;56.80;;;;;;4987361;28;20034;-78
2022/08/14 02:47:10;;;;;;;9.70;6.70;;;23.90;57.40;;;;;;4962158;28;20054;-75
2022/08/14 02:49:37;;;;;;;7.25;5.53;;;23.90;57.60;;;;;;4975115;28;20049;-76
2022/08/14 02:52:06;;;;;;;7.63;5.82;;;23.90;57.50;;;;;;4971802;28;20019;-76
2022/08/14 02:54:33;;;;;;;9.27;6.22;;;23.90;57.80;;;;;;4971727;28;20019;-77
2022/08/14 02:56:59;;;;;;;8.75;6.93;;;23.90;57.80;;;;;;4971362;28;20027;-76
2022/08/14 02:59:30;;;;;;;7.72;6.15;;;23.90;58.20;;;;;;4971511;28;20027;-76
2022/08/14 03:01:56;;;;;;;9.07;6.80;;;23.80;57.70;;;;;;4970800;28;20062;-76
2022/08/14 03:04:22;;;;;;;8.48;7.05;;;23.80;58.10;;;;;;4976590;28;20018;-77
2022/08/14 03:06:49;;;;;;;6.22;4.80;;;23.80;57.80;;;;;;4989468;28;20133;-76
2022/08/14 03:09:23;;;;;;;7.10;5.25;;;23.80;57.40;;;;;;4972463;28;20389;-75
2022/08/14 03:11:49;;;;;;;8.98;6.28;;;23.80;57.50;;;;;;4982520;28;20052;-75
2022/08/14 03:14:15;;;;;;;10.27;6.28;;;23.80;57.40;;;;;;4978313;28;20466;-76
2022/08/14 03:16:41;;;;;;;9.30;6.70;;;23.70;57.90;;;;;;4979089;28;20473;-75
2022/08/14 03:19:08;;;;;;;7.70;5.65;;;23.70;58.30;;;;;;4962339;28;20030;-75
2022/08/14 03:21:36;;;;;;;8.25;5.53;;;23.70;57.90;;;;;;4980255;28;20030;-75
2022/08/14 03:24:10;;;;;;;8.20;5.28;;;23.70;57.70;;;;;;4979528;28;20492;-75
2022/08/14 03:26:41;;;;;;;9.55;6.70;;;23.70;58.20;;;;;;4965945;28;20512;-75
2022/08/14 03:29:08;;;;;;;7.38;5.80;;;23.70;58.40;;;;;;4980655;28;20029;-77
2022/08/14 03:31:35;;;;;;;9.55;6.00;;;23.70;58.70;;;;;;4952561;28;20030;-75
2022/08/14 03:34:02;;;;;;;7.68;5.28;;;23.60;58.50;;;;;;4983930;28;20171;-75
2022/08/14 03:36:31;;;;;;;9.88;7.13;;;23.60;58.30;;;;;;4988567;28;20061;-76
2022/08/14 03:38:58;;;;;;;8.95;6.32;;;23.60;58.40;;;;;;4991697;28;20082;-74
2022/08/14 03:41:27;;;;;;;8.95;6.22;;;23.60;58.80;;;;;;4985496;28;20092;-74
2022/08/14 03:43:56;;;;;;;10.73;6.82;;;23.50;58.60;;;;;;4984121;28;20583;-74
2022/08/14 03:46:26;;;;;;;7.07;5.32;;;23.50;58.80;;;;;;4984167;28;20068;-75
2022/08/14 03:48:53;;;;;;;;;;;23.50;58.60;;;;;;4984134;28;20022;-76
2022/08/14 03:51:19;;;;;;;6.88;5.72;;;23.50;58.70;;;;;;4981000;28;19906;-75
2022/08/14 03:53:48;;;;;;;7.10;5.68;;;23.40;59.00;;;;;;4985711;28;20463;-77
2022/08/14 03:56:15;;;;;;;7.22;6.03;;;23.40;59.00;;;;;;4988144;28;20405;-76
2022/08/14 03:58:49;;;;;;;7.78;6.05;;;23.30;59.20;;;;;;4967553;28;20014;-76
2022/08/14 04:01:20;;;;;;;8.55;6.53;;;23.30;58.90;;;;;;4984690;28;20113;-75
2022/08/14 04:03:47;;;;;;;10.68;7.40;;;23.30;59.20;;;;;;4985454;28;20090;-76
2022/08/14 04:06:15;;;;;;;6.97;5.25;;;23.30;59.90;;;;;;4981143;28;20034;-76
2022/08/14 04:08:41;;;;;;;8.05;6.60;;;23.20;59.50;;;;;;4979305;28;20106;-76
2022/08/14 04:11:09;;;;;;;8.57;6.88;;;23.20;60.00;;;;;;4980812;28;20026;-76
2022/08/14 04:13:38;;;;;;;9.35;8.00;;;23.20;60.20;;;;;;4980890;28;20019;-75
2022/08/14 04:16:07;;;;;;;10.35;7.32;;;23.20;60.50;;;;;;4967756;28;20418;-75
2022/08/14 04:18:38;;;;;;;7.50;6.13;;;23.20;60.00;;;;;;4984280;28;20141;-76
2022/08/14 04:21:04;;;;;;;9.75;7.15;;;23.20;60.10;;;;;;4982414;28;20019;-75
2022/08/14 04:23:30;;;;;;;8.82;5.75;;;23.20;59.60;;;;;;4985112;28;20082;-75
2022/08/14 04:25:56;;;;;;;9.10;6.10;;;23.10;59.80;;;;;;4978852;28;20436;-75
2022/08/14 04:28:23;;;;;;;10.00;5.72;;;23.10;59.30;;;;;;4987415;28;20477;-75
2022/08/14 04:30:49;;;;;;;9.43;6.18;;;23.10;59.60;;;;;;4982475;28;20030;-76
2022/08/14 04:33:15;;;;;;;7.88;6.15;;;23.10;60.10;;;;;;4982068;28;20080;-75
2022/08/14 04:35:41;;;;;;;7.82;6.10;;;23.00;60.30;;;;;;4978866;28;20023;-75
2022/08/14 04:43:39;;;;;;;10.90;6.47;;;22.90;60.90;;;;;;4981876;28;20033;-76
2022/08/14 04:46:06;;;;;;;9.82;6.90;;;22.90;60.30;;;;;;4980566;28;20373;-76
2022/08/14 04:48:32;;;;;;;9.38;7.30;;;22.90;61.00;;;;;;4979654;28;20029;-75
2022/08/14 04:50:57;;;;;;;7.47;5.82;;;22.90;61.10;;;;;;4982004;28;20027;-76
2022/08/14 04:53:26;;;;;;;8.82;7.10;;;22.90;61.00;;;;;;4979099;28;20023;-76
2022/08/14 04:55:52;;;;;;;8.25;6.82;;;22.90;61.10;;;;;;4964354;28;20042;-75
2022/08/14 04:58:23;;;;;;;9.75;7.72;;;22.90;61.10;;;;;;4979611;28;20031;-76
2022/08/14 05:00:50;;;;;;;10.10;7.97;;;22.90;61.30;;;;;;4981843;28;20039;-76
2022/08/14 05:03:21;;;;;;;10.65;6.65;;;22.90;61.60;;;;;;4965401;28;20477;-76
2022/08/14 05:05:47;;;;;;;9.98;7.07;;;23.00;61.30;;;;;;4979917;28;20061;-76
2022/08/14 05:08:14;;;;;;;7.18;5.70;;;23.00;61.30;;;;;;4982021;28;20117;-75
2022/08/14 05:10:50;;;;;;;9.20;7.70;;;23.00;60.10;;;;;;4978062;28;20019;-76
2022/08/14 05:13:22;;;;;;;8.48;6.85;;;23.10;61.20;;;;;;4978464;28;20027;-76
2022/08/14 05:15:48;;;;;;;9.48;8.05;;;23.10;60.80;;;;;;4960739;28;20122;-76
2022/08/14 05:18:16;;;;;;;10.38;8.07;;;23.10;61.20;;;;;;4980885;28;20093;-75
2022/08/14 05:20:45;;;;;;;7.70;5.93;;;23.10;61.10;;;;;;4975739;28;20478;-76
2022/08/14 05:23:19;;;;;;;10.15;6.45;;;23.10;60.30;;;;;;4980860;28;20030;-77
2022/08/14 05:25:46;;;;;;;9.10;6.53;;;23.20;60.60;;;;;;4981218;28;20545;-75
2022/08/14 05:28:18;;;;;;;7.45;6.05;;;23.20;60.40;;;;;;4980128;28;20039;-74
2022/08/14 05:31:05;;;;;;;9.88;8.45;;;23.30;60.20;;;;;;4980409;28;20432;-75
2022/08/14 05:33:33;;;;;;;6.85;5.63;;;23.30;60.60;;;;;;4967199;28;20025;-75
2022/08/14 05:36:00;;;;;;;9.35;7.32;;;23.30;59.60;;;;;;4979649;28;20025;-75
2022/08/14 05:38:35;;;;;;;6.72;5.65;;;23.30;60.50;;;;;;4980501;28;20034;-75
2022/08/14 05:41:06;;;;;;;8.88;6.50;;;23.30;59.80;;;;;;4979369;28;20034;-75
2022/08/14 05:43:33;;;;;;;9.48;8.27;;;23.30;60.00;;;;;;4979057;28;20089;-76
2022/08/14 05:45:59;;;;;;;9.25;7.97;;;23.40;60.40;;;;;;4980004;28;20051;-76
2022/08/14 05:48:28;;;;;;;10.63;6.47;;;23.40;60.00;;;;;;4980403;28;20037;-76
2022/08/14 05:50:54;;;;;;;10.68;6.65;;;23.50;59.50;;;;;;4958640;28;20093;-76
2022/08/14 05:53:24;;;;;;;6.95;5.47;;;23.60;59.20;;;;;;4979561;28;20045;-76
2022/08/14 05:55:51;;;;;;;10.40;6.75;;;23.60;58.80;;;;;;4978004;28;20174;-76
2022/08/14 05:58:18;;;;;;;8.65;6.85;;;23.70;59.40;;;;;;4980207;28;20034;-75
2022/08/14 06:00:45;;;;;;;13.25;8.40;;;23.70;58.80;;;;;;4979620;28;20146;-74
2022/08/14 06:03:16;;;;;;;9.82;7.80;;;23.80;59.60;;;;;;4990409;28;20026;-74
2022/08/14 06:05:43;;;;;;;14.10;10.35;;;23.80;59.80;;;;;;4976882;28;20090;-74
2022/08/14 06:08:24;;;;;;;10.57;8.73;;;23.90;60.50;;;;;;4979920;28;20023;-74
2022/08/14 06:10:52;;;;;;;15.30;10.02;;;23.90;60.00;;;;;;4962315;28;20543;-73
2022/08/14 06:13:18;;;;;;;10.73;8.88;;;23.90;60.60;;;;;;4977958;28;20023;-74
2022/08/14 06:15:44;;;;;;;9.43;8.43;;;24.00;60.40;;;;;;4979604;28;20026;-74
2022/08/14 06:18:10;;;;;;;10.05;8.30;;;24.10;60.20;;;;;;4960347;28;20117;-74
2022/08/14 06:20:37;;;;;;;11.38;9.82;;;24.20;59.80;;;;;;4979481;28;20105;-74
2022/08/14 06:23:03;;;;;;;10.75;9.05;;;24.30;60.60;;;;;;4977788;28;20031;-75
2022/08/14 06:25:29;;;;;;;11.02;8.52;;;24.30;59.80;;;;;;4979465;28;20081;-74
2022/08/14 06:27:55;;;;;;;11.90;10.00;;;24.40;60.00;;;;;;4971866;28;20488;-73
2022/08/14 06:30:25;;;;;;;12.13;9.90;;;24.50;60.10;;;;;;4989796;28;20065;-75
2022/08/14 06:32:51;;;;;;;10.93;9.07;;;24.60;59.70;;;;;;4990039;28;20109;-74
2022/08/14 06:35:19;;;;;;;12.07;9.60;;;24.70;59.60;;;;;;4972113;28;20480;-74
2022/08/14 06:37:58;;;;;;;11.00;9.27;;;24.70;59.40;;;;;;4969991;28;20419;-74
2022/08/14 06:40:26;;;;;;;11.88;9.02;;;24.80;59.30;;;;;;4969680;28;20023;-74
2022/08/14 06:42:52;;;;;;;12.73;9.57;;;24.90;59.20;;;;;;4969986;28;20531;-74
2022/08/14 06:45:18;;;;;;;11.52;8.35;;;25.00;58.40;;;;;;4983736;28;20035;-74
2022/08/14 06:47:47;;;;;;;11.02;9.32;;;25.00;58.60;;;;;;4989201;28;20065;-74
2022/08/14 06:50:18;;;;;;;10.63;9.52;;;25.10;58.20;;;;;;4972123;28;20555;-73
2022/08/14 06:52:45;;;;;;;12.05;9.02;;;25.20;58.20;;;;;;4989411;28;20026;-74
2022/08/14 06:55:15;;;;;;;11.45;10.27;;;25.30;57.30;;;;;;4983455;28;20440;-75
2022/08/14 06:57:44;;;;;;;12.02;8.73;;;25.30;57.70;;;;;;4977628;28;20023;-75
2022/08/14 07:00:22;;;;;;;14.27;10.57;;;25.30;57.50;;;;;;4978686;28;20015;-75
2022/08/14 07:05:49;;;;;;;14.93;12.48;;;25.40;57.60;;;;;;4983132;28;20046;-77
2022/08/14 07:08:26;;;;;;;10.68;9.60;;;25.60;57.50;;;;;;4982814;28;20033;-76
2022/08/14 07:10:58;;;;;;;12.73;11.43;;;25.70;56.60;;;;;;4983333;28;20025;-74
2022/08/14 07:13:26;;;;;;;16.92;11.38;;;25.70;57.20;;;;;;4969808;28;20026;-75
2022/08/14 07:15:54;;;;;;;12.15;10.88;;;25.70;57.00;;;;;;4966723;28;20378;-75
2022/08/14 07:18:21;;;;;;;11.57;8.07;;;25.80;57.10;;;;;;4981148;28;20053;-76
2022/08/14 07:20:47;;;;;;;12.55;11.25;;;26.00;54.60;;;;;;4981784;28;20097;-75
2022/08/14 07:23:13;;;;;;;12.90;11.60;;;26.10;56.30;;;;;;4980652;28;20039;-76
2022/08/14 07:25:41;;;;;;;10.18;6.85;;;26.20;56.30;;;;;;4983313;28;20030;-76
2022/08/14 07:28:14;;;;;;;11.00;9.73;;;26.40;55.80;;;;;;4991134;28;20018;-76
2022/08/14 07:30:40;;;;;;;11.18;7.80;;;26.60;55.00;;;;;;4993783;28;20150;-76
2022/08/14 07:33:06;;;;;;;12.45;11.15;;;26.70;54.40;;;;;;4993476;28;20026;-75
2022/08/14 07:35:33;;;;;;;8.48;6.80;;;26.80;54.90;;;;;;4986909;28;20030;-75
2022/08/14 07:37:59;;;;;;;8.23;6.03;;;26.90;54.60;;;;;;4963995;28;20022;-76
2022/08/14 07:40:25;;;;;;;13.13;11.77;;;26.90;52.20;;;;;;4983561;28;20025;-76
2022/08/14 07:42:51;;;;;;;11.52;9.88;;;27.10;53.80;;;;;;4980399;28;20015;-76
2022/08/14 07:45:17;;;;;;;10.43;7.65;;;27.10;54.80;;;;;;4965224;28;20117;-74
2022/08/14 07:47:43;;;;;;;10.13;7.38;;;27.10;53.60;;;;;;4980386;28;20177;-74
2022/08/14 07:50:15;;;;;;;13.88;12.00;;;27.20;53.60;;;;;;4963818;28;20025;-74
2022/08/14 07:52:45;;;;;;;13.88;11.40;;;27.20;53.90;;;;;;4978441;28;20030;-75
2022/08/14 07:55:12;;;;;;;13.25;10.77;;;27.20;54.60;;;;;;4983648;28;20026;-75
2022/08/14 07:57:43;;;;;;;10.07;7.97;;;27.30;54.70;;;;;;4981326;28;20023;-74
2022/08/14 08:00:12;;;;;;;9.75;7.80;;;27.40;53.30;;;;;;4981390;28;20022;-72
2022/08/14 08:02:40;;;;;;;9.07;6.18;;;27.60;52.90;;;;;;4983875;28;20109;-72
2022/08/14 08:05:08;;;;;;;12.57;9.82;;;27.70;52.20;;;;;;4984335;28;20074;-73
2022/08/14 08:07:34;;;;;;;9.30;6.35;;;28.00;52.20;;;;;;4981322;28;20493;-72
2022/08/14 08:10:31;;;;;;;9.13;7.00;;;28.10;51.10;;;;;;4980886;28;20477;-73
2022/08/14 08:12:57;;;;;;;8.32;6.85;;;28.30;51.30;;;;;;4985176;28;20044;-73
2022/08/14 08:15:24;;;;;;;8.07;5.75;;;28.50;51.60;;;;;;4981261;28;20029;-74
2022/08/14 08:17:50;;;;;;;9.25;6.85;;;28.50;51.10;;;;;;4961911;28;20085;-73
2022/08/14 08:20:26;;;;;;;9.57;7.40;;;28.50;51.00;;;;;;4982984;28;20026;-72
2022/08/14 08:22:55;;;;;;;7.10;6.00;;;28.50;51.50;;;;;;4982807;28;20470;-73
2022/08/14 08:25:21;;;;;;;9.43;6.87;;;28.40;51.60;;;;;;4982548;28;20035;-73
2022/08/14 08:28:01;;;;;;;7.85;6.88;;;28.60;51.20;;;;;;4979822;28;20300;-72
2022/08/14 08:30:28;;;;;;;;;;;28.80;51.20;;;;;;4982414;28;20019;-72
2022/08/14 08:32:55;;;;;;;7.97;6.65;;;28.90;50.40;;;;;;4980992;28;19913;-73
2022/08/14 08:35:24;;;;;;;8.48;6.93;;;29.00;50.30;;;;;;4982048;28;20046;-72
2022/08/14 08:37:52;;;;;;;8.75;7.43;;;29.10;50.30;;;;;;4985631;28;20015;-73
2022/08/14 08:40:34;;;;;;;8.43;6.47;;;29.20;50.30;;;;;;4986231;28;20027;-72
2022/08/14 08:43:05;;;;;;;7.50;5.97;;;29.30;50.30;;;;;;4986750;28;20440;-72
2022/08/14 08:45:33;;;;;;;9.43;5.80;;;29.30;50.20;;;;;;4983533;28;20243;-73
2022/08/14 08:47:59;;;;;;;9.45;7.32;;;;;;;;;;4967492;28;20589;-77
2022/08/14 08:50:33;;;;;;;8.02;5.55;;;;;;;;;;4963925;28;20709;-77
2022/08/14 08:53:04;;;;;;;9.57;8.55;;;;;;;;;;4964715;28;20049;-76
2022/08/14 08:55:36;;;;;;;10.55;6.55;;;;;;;;;;4983793;28;20037;-76
2022/08/14 08:58:04;;;;;;;10.45;6.82;;;;;;;;;;4982230;28;20030;-77
2022/08/14 09:00:35;;;;;;;12.80;9.02;;;;;;;;;;4979342;28;20084;-76
2022/08/14 09:03:08;;;;;;;9.60;8.60;;;;;;;;;;4980579;28;20010;-76
2022/08/14 09:05:35;;;;;;;13.07;8.00;;;;;;;;;;4984329;28;20042;-75
2022/08/14 09:08:15;;;;;;;10.60;7.18;;;;;;;;;;4963021;28;20037;-74
2022/08/14 09:10:41;;;;;;;;;;;;;;;;;;4983217;28;20392;-76
2022/08/14 09:13:08;;;;;;;9.00;6.20;;;;;;;;;;4985429;28;19956;-76
2022/08/14 09:15:36;;;;;;;9.32;6.95;;;;;;;;;;4979301;28;20031;-76
2022/08/14 09:18:02;;;;;;;7.78;6.38;;;;;;;;;;4976639;28;20023;-75
2022/08/14 09:20:28;;;;;;;8.30;6.55;;;;;;;;;;4981680;28;20026;-76
2022/08/14 09:22:54;;;;;;;8.82;7.63;;;;;;;;;;4990326;28;20057;-75
2022/08/14 09:25:20;;;;;;;8.40;5.75;;;;;;;;;;4988808;28;20092;-75
2022/08/14 09:27:48;;;;;;;7.75;5.47;;;;;;;;;;4970607;28;20755;-75
2022/08/14 09:30:14;;;;;;;8.45;6.10;;;;;;;;;;4989112;28;20457;-75
2022/08/14 09:33:15;;;;;;;8.63;6.63;;;;;;;;;;4988611;28;20022;-74
2022/08/14 09:35:47;;;;;;;7.60;6.40;;;;;;;;;;4987365;28;20113;-73
2022/08/14 09:38:33;;;;;;;8.70;6.63;;;;;;;;;;4961692;28;20112;-75
2022/08/14 09:41:18;;;;;;;7.15;6.07;;;;;;;;;;4976453;28;20086;-75
2022/08/14 09:43:44;;;;;;;9.15;7.45;;;;;;;;;;4986449;28;20076;-75
2022/08/14 09:46:11;;;;;;;9.43;6.00;;;;;;;;;;4989063;28;20047;-75
2022/08/14 09:48:37;;;;;;;6.18;5.53;;;;;;;;;;4989244;28;20030;-75
2022/08/14 09:51:06;;;;;;;9.23;5.72;;;;;;;;;;4989749;28;20134;-76
2022/08/14 09:53:42;;;;;;;7.25;5.32;;;;;;;;;;4989641;28;20033;-75
2022/08/14 09:56:10;;;;;;;6.45;5.07;;;;;;;;;;4966669;28;20035;-76
2022/08/14 09:58:36;;;;;;;8.10;5.00;;;;;;;;;;4980130;28;20022;-77
2022/08/14 10:01:07;;;;;;;11.48;6.18;;;;;;;;;;4978267;28;20697;-76
2022/08/14 10:03:35;;;;;;;6.90;5.47;;;;;;;;;;4980398;28;20144;-75
2022/08/14 10:06:06;;;;;;;5.70;5.00;;;;;;;;;;4978978;28;20034;-75
2022/08/14 10:08:42;;;;;;;6.95;5.90;;;;;;;;;;4978440;28;20022;-75
2022/08/14 10:11:18;;;;;;;8.02;6.63;;;;;;;;;;4979686;28;20039;-75
2022/08/14 10:13:45;;;;;;;8.07;5.57;;;;;;;;;;4980748;28;20034;-74
2022/08/14 10:16:12;;;;;;;8.65;5.57;;;;;;;;;;4980509;28;20037;-74
2022/08/14 10:18:38;;;;;;;7.40;5.38;;;;;;;;;;4978747;28;20026;-74
2022/08/14 10:21:10;;;;;;;7.38;4.95;;;;;;;;;;4981593;28;20424;-74
2022/08/14 10:23:41;;;;;;;8.65;6.35;;;;;;;;;;4977698;28;20030;-76
2022/08/14 10:26:08;;;;;;;7.43;5.22;;;;;;;;;;4978020;28;20125;-75
2022/08/14 10:28:42;;;;;;;6.72;5.30;;;;;;;;;;4983207;28;20043;-75
2022/08/14 10:31:30;;;;;;;8.85;5.32;;;;;;;;;;4980600;28;20030;-75
2022/08/14 10:34:02;;;;;;;7.20;5.32;;;;;;;;;;4972705;28;20055;-75
2022/08/14 10:36:38;;;;;;;7.32;5.30;;;;;;;;;;4989397;28;20034;-75
2022/08/14 10:39:07;;;;;;;6.20;4.90;;;;;;;;;;4989116;28;20113;-75
2022/08/14 10:41:40;;;;;;;8.20;5.65;;;;;;;;;;4973597;28;20113;-78
2022/08/14 10:44:07;;;;;;;9.32;6.45;;;;;;;;;;4960794;28;20736;-76
2022/08/14 10:46:41;;;;;;;6.47;5.03;;;;;;;;;;4992807;28;20058;-77
2022/08/14 10:49:15;;;;;;;6.13;4.88;;;;;;;;;;4981030;28;20035;-77
2022/08/14 10:51:41;;;;;;;7.40;4.80;;;;;;;;;;4986622;28;20060;-77
2022/08/14 10:54:08;;;;;;;7.70;4.93;;;;;;;;;;4956203;28;20067;-75
2022/08/14 10:56:35;;;;;;;7.05;3.97;;;;;;;;;;4978944;28;20054;-75
2022/08/14 10:59:04;;;;;;;7.40;5.18;;;;;;;;;;4991647;28;20080;-77
2022/08/14 11:01:37;;;;;;;6.68;5.28;;;;;;;;;;4993114;28;20500;-77
2022/08/14 11:04:04;;;;;;;6.32;5.43;;;;;;;;;;4993828;28;20022;-79
2022/08/14 11:06:32;;;;;;;8.10;5.38;;;;;;;;;;4975557;28;20034;-78
2022/08/14 11:09:11;;;;;;;6.40;5.18;;;;;;;;;;4992594;28;20045;-76
2022/08/14 11:11:42;;;;;;;7.27;4.67;;;;;;;;;;4959253;28;20026;-77
2022/08/14 11:14:08;;;;;;;5.68;4.43;;;;;;;;;;4992565;28;20278;-77
2022/08/14 11:16:34;;;;;;;10.07;5.72;;;;;;;;;;4975121;28;20026;-74
2022/08/14 11:19:02;;;;;;;5.63;4.60;;;;;;;;;;4992674;28;20031;-76
2022/08/14 11:21:29;;;;;;;6.05;4.53;;;;;;;;;;4991665;28;20393;-75
2022/08/14 11:23:56;;;;;;;6.95;5.22;;;;;;;;;;4972995;28;20027;-75
2022/08/14 11:26:24;;;;;;;5.80;4.53;;;;;;;;;;4973743;28;20454;-75
2022/08/14 11:28:50;;;;;;;7.35;4.95;;;;;;;;;;4974395;28;20019;-76
2022/08/14 11:31:22;;;;;;;7.82;5.38;;;;;;;;;;4991786;28;20033;-77
2022/08/14 11:33:49;;;;;;;7.03;4.57;;;;;;;;;;4991955;28;20026;-77
2022/08/14 11:36:15;;;;;;;6.20;4.53;;;;;;;;;;4984551;28;20027;-78
2022/08/14 11:38:45;;;;;;;8.20;5.35;;;;;;;;;;4973327;28;20109;-77
2022/08/14 11:41:12;;;;;;;7.65;5.50;;;;;;;;;;4972667;28;20037;-78
2022/08/14 11:43:43;;;;;;;6.90;5.40;;;;;;;;;;4973097;28;20101;-76
2022/08/14 11:46:12;;;;;;;6.25;4.57;;;;;;;;;;4979420;28;20058;-77
2022/08/14 11:48:52;;;;;;;8.80;4.70;;;;;;;;;;4992447;28;20031;-77
2022/08/14 11:51:22;;;;;;;5.55;3.97;;;;;;;;;;4990617;28;20269;-75
2022/08/14 11:53:48;;;;;;;;;;;;;;;;;;4973009;28;20171;-75
2022/08/14 11:56:14;;;;;;;7.35;4.72;;;;;;;;;;4952851;28;19917;-76
2022/08/14 11:58:40;;;;;;;5.18;4.07;;;;;;;;;;4971467;28;20062;-77
2022/08/14 12:01:08;;;;;;;6.60;5.13;;;;;;;;;;4953420;28;20026;-77
2022/08/14 12:03:35;;;;;;;6.13;4.18;;;;;;;;;;4971353;28;20062;-77
2022/08/14 12:06:05;;;;;;;5.47;4.53;;;;;;;;;;4971502;28;20066;-77
2022/08/14 12:08:35;;;;;;;6.57;4.53;;;;;;;;;;4984392;28;20034;-77
2022/08/14 12:11:02;;;;;;;5.10;3.83;;;;;;;;;;4992182;28;20022;-77
2022/08/14 12:13:31;;;;;;;4.85;3.85;;;;;;;;;;4984279;28;20030;-76
2022/08/14 12:16:01;;;;;;;7.03;3.95;;;;;;;;;;4992381;28;20035;-77
2022/08/14 12:18:33;;;;;;;6.53;3.58;;;;;;;;;;4974442;28;20038;-76
2022/08/14 12:21:09;;;;;;;7.75;3.47;;;;;;;;;;4989258;28;20482;-75
2022/08/14 12:23:35;;;;;;;4.78;3.67;;;;;;;;;;4990186;28;20493;-81
2022/08/14 12:26:03;;;;;;;4.70;3.70;;;;;;;;;;4975545;28;20034;-81
2022/08/14 12:28:29;;;;;;;5.57;3.33;;;;;;;;;;4993950;28;20026;-79
2022/08/14 12:30:55;;;;;;;6.57;4.45;;;;;;;;;;4989699;28;20019;-82
2022/08/14 12:33:26;;;;;;;5.00;4.18;;;;;;;;;;4963414;28;20089;-76
2022/08/14 12:35:53;;;;;;;6.47;4.13;;;;;;;;;;4969356;28;20026;-78
2022/08/14 12:38:30;;;;;;;6.53;4.00;;;;;;;;;;4972543;28;20027;-78
2022/08/14 12:40:56;;;;;;;4.78;3.70;;;;;;;;;;4972792;28;20031;-77
2022/08/14 12:43:22;;;;;;;6.93;5.10;;;;;;;;;;4991764;28;20037;-77
2022/08/14 12:45:49;;;;;;;6.60;4.28;;;;;;;;;;4991146;28;20081;-77
2022/08/14 12:48:16;;;;;;;5.13;4.53;;;;;;;;;;4992238;28;20032;-78
2022/08/14 12:50:43;;;;;;;5.93;4.28;;;;;;;;;;4991997;28;20492;-77
2022/08/14 12:53:11;;;;;;;5.20;3.97;;;;;;;;;;4985777;28;20023;-78
2022/08/14 12:55:37;;;;;;;5.90;4.70;;;;;;;;;;4976558;28;20041;-78
2022/08/14 12:58:04;;;;;;;6.00;4.18;;;;;;;;;;4974545;28;20289;-77
2022/08/14 13:00:33;;;;;;;6.60;4.28;;;;;;;;;;4981481;28;20022;-78
2022/08/14 13:03:00;;;;;;;5.57;3.70;;;;;;;;;;4983628;28;20030;-79
2022/08/14 13:05:30;;;;;;;5.55;4.70;;;;;;;;;;4990546;28;20311;-77
2022/08/14 13:07:56;;;;;;;5.03;3.90;;;;;;;;;;4975800;28;20112;-80
2022/08/14 13:10:22;;;;;;;7.03;4.68;;;;;;;;;;4973527;28;20034;-79
2022/08/14 13:12:54;;;;;;;5.43;4.43;;;;;;;;;;4973348;28;20034;-80
2022/08/14 13:15:20;;;;;;;7.32;4.22;;;;;;;;;;4973823;28;20477;-80
2022/08/14 13:17:49;;;;;;;5.25;4.20;;;;;;;;;;4992304;28;20031;-79
2022/08/14 13:20:16;;;;;;;9.38;4.82;;;;;;;;;;4992747;28;20030;-77
2022/08/14 13:22:43;;;;;;;5.60;4.10;;;;;;;;;;4988326;28;20034;-80
2022/08/14 13:25:11;;;;;;;6.00;4.15;;;;;;;;;;4979537;28;20029;-76
2022/08/14 13:27:37;;;;;;;6.82;4.13;;;;;;;;;;4983816;28;20033;-76
2022/08/14 13:30:08;;;;;;;6.05;4.10;;;;;;;;;;4980351;28;20090;-76
2022/08/14 13:32:36;;;;;;;5.55;3.90;;;;;;;;;;4987527;28;20037;-76
2022/08/14 13:35:02;;;;;;;5.80;3.92;;;;;;;;;;4982825;28;20500;-78
2022/08/14 13:37:30;;;;;;;6.03;4.57;;;;;;;;;;4982245;28;20034;-77
2022/08/14 13:39:56;;;;;;;6.32;4.18;;;;;;;;;;4983509;28;20018;-78
2022/08/14 13:42:26;;;;;;;5.72;4.82;;;;;;;;;;4981750;28;20433;-77
2022/08/14 13:44:53;;;;;;;6.40;4.90;;;;;;;;;;4971380;28;20507;-78